Amargosa Valley, Nevada Weather observations

Data are for observation ending at time listed.
 Day   Time    Ave.   Ave.  Ave.  Vector   Max.   Stn.    Total    Solar   Ave.  
  of    of     Air    Rel.  Wind   Wind    Wind   Baro.  Precip.   Rad.    Soil  
Year   Day     Temp.  Hum.  Speed  Dir.    Gust   Pres.                    Temp. 
2026   (PST)    F      %     mph   deg.    mph     mb.     in.     W/m2     F   
------------------------------------------------------------------------------
 125   11:40   67.2    28    3.3   100      8.8   923.9    0.00     948    71.2
 125   11:50   68.1    28    4.9   186     13.6   923.8    0.00     957    71.3
 125   12:00   67.3    28    5.2   187     14.0   923.6    0.00     951    71.3
 125   12:10   67.7    27    4.5   162     12.9   923.5    0.00     950    71.4
 125   12:20   68.0    26    2.7   106      5.6   923.4    0.00     948    71.5
 125   12:30   69.0    25    5.1   138     12.1   923.3    0.00     945    71.6
 125   12:40   68.5    25    5.3   152     11.0   923.3    0.00     936    71.7
 125   12:50   68.6    25    5.9   194     10.2   923.2    0.00     927    71.8
 125   13:00   69.4    24    2.7   138      5.9   923.2    0.00     919    71.9
 125   13:10   70.1    23    3.5   231     11.4   923.2    0.00     906    72.1
 125   13:20   70.7    23    4.3   180     13.5   923.1    0.00     893    72.2
 125   13:30   69.9    24    7.5   156     12.9   923.0    0.00     879    72.4
 125   13:40   69.8    23    3.9   189     10.7   922.8    0.00     862    72.6
 125   13:50   70.1    23    7.3   193     14.1   922.7    0.00     844    72.8
 125   14:00   70.2    23    5.4   157     11.1   922.7    0.00     822    73.0
 125   14:10   71.1    21    2.5   165      7.1   922.5    0.00     799    73.3
 125   14:20   71.9    21    6.6   164     12.4   922.4    0.00     779    73.5
 125   14:30   71.0    21    6.4   149     10.4   922.3    0.00     754    73.8
 125   14:40   71.0    21    6.6   147     16.1   922.2    0.00     729    74.0
 125   14:50   71.1    20    5.3   186     11.9   922.1    0.00     693    74.3
 125   15:00   71.2    19    4.1   157      9.2   921.9    0.00     190    74.5
 125   15:10   71.5    18    3.1   150      9.6   921.7    0.00      59    74.8
 125   15:20   71.7    18    3.6   223      7.7   921.7    0.00      58    75.0
 125   15:30   71.9    18    5.1   177      9.4   921.6    0.00      53    75.2
 125   15:40   71.9    19    2.7   189      6.6   921.6    0.00      52    75.4
 125   15:50   71.8    19    3.3   165      8.8   921.6    0.00      63    75.6
 125   16:00   72.5    19    3.0   236     10.7   921.6    0.00      49    75.8
 125   16:10   72.3    19    2.7   222      9.3   921.6    0.00     108    75.9
 125   16:20   72.1    19    4.0   150      9.6   921.6    0.00      61    76.1
 125   16:30   72.4    19    4.7   154     11.2   921.5    0.00      50    76.2
 125   16:40   72.8    18    5.5   206     10.9   921.5    0.00      47    76.3
 125   16:50   72.8    18    2.9   231      5.8   921.5    0.00     159    76.4
 125   17:00   73.0    18    5.0   230      9.3   921.5    0.00     116    76.5
 125   17:10   72.8    18    2.9   227      8.0   921.6    0.00      41    76.5
 125   17:20   72.7    18    2.5   234      5.0   921.6    0.00      37    76.6
 125   17:30   72.9    18    2.7   216      5.3   921.6    0.00      34    76.6
 125   17:40   73.2    18    2.2   244      6.7   921.6    0.00      32    76.7
 125   17:50   72.4    18    5.6   200      9.1   921.6    0.00      29    76.7
 125   18:00   71.7    19    3.8   184      6.8   921.7    0.00      43    76.7
 125   18:10   71.6    19    6.1   195      9.1   921.7    0.00      27    76.7
 125   18:20   71.3    20    5.5   185      8.5   921.9    0.00      16    76.7
 125   18:30   70.7    20    5.9   184     10.4   922.1    0.00      11    76.7
 125   18:40   70.2    21    5.1   176      7.9   922.3    0.00       5    76.7
 125   18:50   69.6    22    4.9   168      7.9   922.4    0.00       2    76.8
 125   19:00   68.9    23    5.3   169      8.6   922.5    0.00       1    76.8
 125   19:10   68.0    23    4.7   171      6.1   922.7    0.00       0    76.7
 125   19:20   67.7    23    3.2   164      5.6   922.8    0.00       0    76.7
 125   19:30   67.0    24    3.7   178      6.1   923.0    0.00       0    76.7
 125   19:40   66.6    25    4.4   173      7.2   923.2    0.00       0    76.7
 125   19:50   66.3    25    4.1   153      6.2   923.3    0.00       0    76.7
 125   20:00   66.0    25    3.1   146      5.6   923.6    0.00       0    76.7
 125   20:10   65.9    25    2.7   141      5.5   923.8    0.00       0    76.6
 125   20:20   65.4    25    1.9   125      3.6   923.9    0.00       0    76.6
 125   20:30   65.6    25    2.4   108      3.8   924.1    0.00       0    76.5
 125   20:40   65.1    25    2.5   129      3.9   924.2    0.00       0    76.5
 125   20:50   63.7    26    2.4   131      3.6   924.2    0.00       0    76.4
 125   21:00   63.0    26    2.3   125      3.2   924.2    0.00       0    76.4
 125   21:10   62.3    27    2.6   106      3.9   924.2    0.00       0    76.3
 125   21:20   62.1    27    2.6   107      3.9   924.4    0.00       0    76.3
 125   21:30   61.6    28    1.9   118      3.0   924.5    0.00       0    76.2
 125   21:40   61.3    28    2.3   124      3.4   924.6    0.00       0    76.2
 125   21:50   61.3    28    1.5   120      3.1   924.6    0.00       0    76.1
 125   22:00   61.1    28    0.4   264      1.4   924.8    0.00       0    76.0
 125   22:10   60.9    29    0.3   330      1.8   924.8    0.00       0    76.0
 125   22:20   61.2    28    0.9   193      3.1   924.9    0.00       0    75.9
 125   22:30   62.3    27    0.9   178      2.4   925.0    0.00       0    75.8
 125   22:40   62.4    27    0.5    59      2.1   925.1    0.00       0    75.7
 125   22:50   61.2    27    1.2    40      2.1   925.2    0.00       0    75.7
 125   23:00   59.6    28    0.6    12      1.8   925.4    0.00       0    75.6
 125   23:10   57.8    30    0.8    19      2.1   925.5    0.00       0    75.5
 125   23:20   57.6    30    0.5    20      1.8   925.5    0.00       0    75.4
 125   23:30   58.4    29    0.6    15      2.2   925.5    0.00       0    75.4
 125   23:40   58.5    29    0.8    15      2.2   925.5    0.00       0    75.3
 125   23:50   57.7    30    0.4     8      1.2   925.5    0.00       0    75.2
 126    0:00   56.6    30    0.6    16      1.7   925.5    0.00       0    75.1
 126    0:10   56.3    31    0.6    28      2.2   925.6    0.00       0    75.0
 126    0:20   56.9    30    1.3    39      2.9   925.5    0.00       0    75.0
 126    0:30   57.5    30    2.4    71      4.4   925.5    0.00       0    74.9
 126    0:40   57.7    31    2.1    58      3.4   925.6    0.00       0    74.8
 126    0:50   58.3    32    4.4    78      6.4   925.7    0.00       0    74.7
 126    1:00   58.3    33    4.3    97      6.0   925.8    0.00       0    74.6
 126    1:10   58.1    35    4.4    91      5.9   925.8    0.00       0    74.5
 126    1:20   57.6    36    4.2   114      6.1   925.8    0.00       0    74.4
 126    1:30   57.1    36    3.6   124      8.0   925.9    0.00       0    74.3
 126    1:40   56.2    37    2.8   121      4.0   925.9    0.00       0    74.3
 126    1:50   55.8    38    3.2   118      4.5   926.1    0.00       0    74.2
 126    2:00   55.3    39    3.4   117      4.7   926.1    0.00       0    74.1
 126    2:10   55.1    40    3.3   102      4.4   926.2    0.00       0    74.0
 126    2:20   54.7    42    3.6    98      5.2   926.3    0.00       0    73.9
 126    2:30   54.6    44    3.4   105      4.2   926.5    0.00       0    73.8
 126    2:40   54.5    45    2.9   104      3.9   926.6    0.00       0    73.8
 126    2:50   55.5    45    2.8   103      3.9   926.8    0.00       0    73.6
 126    3:00   55.7    45    3.4   112      5.0   926.8    0.00       0    73.5
 126    3:10   54.9    47    3.6   134      5.0   926.9    0.00       0    73.5
 126    3:20   54.8    48    3.6   139      6.4   927.0    0.00       0    73.4
 126    3:30   55.0    50    5.3   164      8.6   927.1    0.00       0    73.3
 126    3:40   54.7    50    3.8   157      6.5   927.1    0.00       0    73.2
 126    3:50   54.4    51    5.7   164      9.9   927.2    0.00       0    73.1
 126    4:00   54.5    52    6.0   176      8.7   927.3    0.00       0    73.0
 126    4:10   54.6    52    5.9   164      9.3   927.3    0.00       0    73.0
 126    4:20   53.9    54    4.3   166      6.6   927.4    0.00       0    72.9
 126    4:30   53.2    54    3.2   156      4.0   927.5    0.00       0    72.8
 126    4:40   52.5    56    2.6   162      4.0   927.6    0.00       1    72.7
 126    4:50   51.9    56    2.6   178      4.3   927.7    0.00       3    72.6
 126    5:00   51.9    56    2.1   170      3.9   927.9    0.00       7    72.6
 126    5:10   52.0    56    1.6   151      2.9   928.1    0.00      13    72.5
 126    5:20   52.6    56    1.3   142      3.1   928.3    0.00      22    72.4
 126    5:30   53.3    54    1.9   120      3.3   928.4    0.00      76    72.3
 126    5:40   55.2    51    1.7   116      3.1   928.5    0.00     105    72.2
 126    5:50   57.3    47    1.8   139      3.1   928.7    0.00     134    72.1
 126    6:00   57.7    47    3.0   151      4.5   928.9    0.00     164    72.0
 126    6:10   58.2    46    3.7   161      6.6   929.0    0.00     196    71.9
 126    6:20   58.7    46    4.7   177      8.1   929.1    0.00     227    71.8
 126    6:30   59.1    44    6.3   186     10.5   929.3    0.00     259    71.7
 126    6:40   59.8    43    6.5   189      9.5   929.3    0.00     293    71.7
 126    6:50   60.4    41    7.8   192     10.7   929.4    0.00     326    71.6
 126    7:00   61.1    40    6.7   196     10.0   929.5    0.00     359    71.5
 126    7:10   61.1    39    4.5   211      9.5   929.5    0.00     392    71.4
 126    7:20   61.0    38    2.2   244      5.5   929.4    0.00     424    71.3
 126    7:30   61.3    38    2.7   237      6.7   929.4    0.00     456    71.3
 126    7:40   62.1    37    3.1   218      6.7   929.4    0.00     489    71.2
 126    7:50   62.6    36    2.7   212      5.0   929.5    0.00     521    71.2
 126    8:00   63.1    34    2.7   221      6.3   929.4    0.00     552    71.1
 126    8:10   64.3    33    2.2   189      5.0   929.4    0.00     583    71.1
 126    8:20   65.4    31    1.5   216      3.7   929.4    0.00     614    71.1
 126    8:30   66.5    30    1.8   157      4.5   929.4    0.00     643    71.0
 126    8:40   67.4    29    1.7   192      3.9   929.4    0.00     672    71.0
 126    8:50   68.1    28    1.3    63      3.0   929.5    0.00     700    71.0
 126    9:00   69.2    27    2.0   328      7.0   929.4    0.00     725    71.0
 126    9:10   70.3    26    1.4    21      4.8   929.4    0.00     750    71.0
 126    9:20   71.0    26    1.6   285      6.3   929.4    0.00     770    71.0
 126    9:30   71.1    26    2.0    44      4.7   929.4    0.00     793    71.0
 126    9:40   72.3    26    1.1   314      4.2   929.4    0.00     812    71.0
 126    9:50   72.4    26    2.3   292      5.3   929.4    0.00     831    71.1
 126   10:00   73.3    25    1.3   291      3.6   929.3    0.00     849    71.0
 126   10:10   74.8    24    1.6   301      4.5   929.2    0.00     866    71.1
 126   10:20   74.4    24    1.8   241      4.7   929.1    0.00     882    71.1
 126   10:30   75.5    24    1.7   286      4.9   929.0    0.00     896    71.2
 126   10:40   76.3    23    2.2   278      5.6   928.9    0.00     908    71.3
 126   10:50   76.9    23    1.8   282      6.3   928.7    0.00     919    71.3
 126   11:00   76.7    23    2.4   349      6.4   928.6    0.00     929    71.4
 126   11:10   77.6    22    1.7   240      5.0   928.5    0.00     937    71.5
 126   11:20   78.7    22    2.7   308     10.3   928.3    0.00     943    71.6
 126   11:30   78.6    21    2.7   162      7.4   928.2    0.00     947    71.7

Return to Amargosa Valley, Nevada graphs page.


Western Regional Climate Center,wrcc@dri.edu